createdAt,value
2023-04-02T00:00:07.011Z,9.24
2023-04-02T00:05:16.396Z,9.24
2023-04-02T00:10:33.209Z,9.24
2023-04-02T00:20:38.491Z,9.24
2023-04-02T00:25:43.203Z,9.24
2023-04-02T00:30:58.973Z,9.24
2023-04-02T00:36:00.459Z,9.24
2023-04-02T00:41:03.744Z,9.24
2023-04-02T00:51:14.155Z,-140.81
2023-04-02T00:56:30.961Z,9.24
2023-04-02T01:01:36.621Z,9.24
2023-04-02T01:06:38.675Z,9.24
2023-04-02T01:11:58.627Z,-140.81
2023-04-02T01:22:13.886Z,-140.81
2023-04-02T01:27:21.475Z,-140.81
2023-04-02T01:32:24.134Z,9.24
2023-04-02T01:42:44.408Z,-140.81
2023-04-02T01:47:46.238Z,-140.81
2023-04-02T01:52:53.679Z,-140.81
2023-04-02T01:57:55.570Z,-140.81
2023-04-02T02:02:57.224Z,-140.81
2023-04-02T02:13:03.908Z,-140.81
2023-04-02T02:18:05.822Z,-140.81
2023-04-02T02:23:07.642Z,-140.81
2023-04-02T02:28:23.734Z,-140.81
2023-04-02T02:38:29.958Z,-140.81
2023-04-02T02:48:39.039Z,-140.81
2023-04-02T02:53:50.510Z,-140.81
2023-04-02T02:58:53.245Z,-140.81
2023-04-02T03:03:59.731Z,-140.81
2023-04-02T03:09:17.327Z,-140.81
2023-04-02T03:14:24.034Z,-140.81
2023-04-02T03:24:59.533Z,-140.81
2023-04-02T03:30:05.128Z,-140.81
2023-04-02T03:35:27.701Z,-140.81
2023-04-02T03:40:34.958Z,-140.81
2023-04-02T03:45:39.728Z,-140.81
2023-04-02T03:50:45.942Z,-140.81
2023-04-02T03:55:47.922Z,-140.81
2023-04-02T04:00:56.783Z,-140.81
2023-04-02T04:06:00.707Z,-140.81
2023-04-02T04:11:07.413Z,-140.81
2023-04-02T04:16:17.614Z,-140.81
2023-04-02T04:26:53.432Z,-140.81
2023-04-02T04:31:56.180Z,-140.81
2023-04-02T04:47:18.615Z,-140.81
2023-04-02T04:52:24.243Z,-140.81
2023-04-02T04:57:36.589Z,-140.81
2023-04-02T05:02:52.705Z,9.24
2023-04-02T05:13:04.649Z,-140.81
2023-04-02T05:18:14.871Z,-140.81
2023-04-02T05:23:29.512Z,-140.81
2023-04-02T05:28:42.473Z,-140.81
2023-04-02T05:33:47.925Z,-140.81
2023-04-02T05:38:51.291Z,-140.81
2023-04-02T05:44:17.178Z,-140.81
2023-04-02T05:49:25.374Z,-140.81
2023-04-02T05:54:30.023Z,-140.81
2023-04-02T05:59:41.851Z,-140.81
2023-04-02T06:14:52.558Z,-140.81
2023-04-02T06:19:57.192Z,-140.81
2023-04-02T06:25:02.545Z,-140.81
2023-04-02T06:30:15.600Z,-140.81
2023-04-02T06:35:17.927Z,-140.81
2023-04-02T06:40:30.389Z,-140.81
2023-04-02T06:45:34.944Z,-140.81
2023-04-02T06:51:07.215Z,-140.81
2023-04-02T06:56:27.691Z,-140.81
2023-04-02T07:01:30.725Z,-140.81
2023-04-02T07:06:33.024Z,-140.81
2023-04-02T07:11:36.274Z,-140.81
2023-04-02T07:16:40.967Z,-140.81
2023-04-02T07:21:42.461Z,-140.81
2023-04-02T07:31:45.586Z,-140.81
2023-04-02T07:36:47.049Z,-140.81
2023-04-02T07:41:55.761Z,-140.81
2023-04-02T07:46:57.249Z,-140.81
2023-04-02T07:51:58.867Z,-140.81
2023-04-02T07:57:00.269Z,-140.81
2023-04-02T08:02:02.706Z,-140.81
2023-04-02T08:07:04.097Z,-140.81
2023-04-02T08:12:05.711Z,-140.81
2023-04-02T08:17:07.153Z,-140.81
2023-04-02T08:22:08.463Z,-140.81
2023-04-02T08:27:13.628Z,-140.81
2023-04-02T08:32:16.214Z,-140.81
2023-04-02T08:37:17.554Z,-140.81
2023-04-02T08:42:23.208Z,-140.81
2023-04-02T08:47:27.029Z,-140.81
2023-04-02T08:52:30.423Z,-140.81
2023-04-02T08:57:31.880Z,-140.81
2023-04-02T09:02:46.779Z,-140.81
2023-04-02T09:07:50.629Z,-140.81
2023-04-02T09:12:52.799Z,-140.81
2023-04-02T09:17:59.963Z,-140.81
2023-04-02T09:28:04.319Z,9.24
2023-04-02T09:33:09.457Z,-140.81
2023-04-02T09:38:31.616Z,-140.81
2023-04-02T09:43:36.855Z,9.24
2023-04-02T09:53:45.993Z,-140.81
2023-04-02T09:59:02.901Z,9.24
2023-04-02T10:04:05.297Z,9.24
2023-04-02T10:09:21.468Z,9.24
2023-04-02T10:14:30.432Z,-140.81
2023-04-02T10:19:37.575Z,9.24
2023-04-02T10:24:39.637Z,9.24
2023-04-02T10:29:53.708Z,9.24
2023-04-02T10:34:58.149Z,7.40
2023-04-02T10:40:19.735Z,7.55
2023-04-02T10:45:32.398Z,7.16
2023-04-02T10:50:40.277Z,7.16
2023-04-02T10:55:48.129Z,7.47
2023-04-02T11:00:49.980Z,7.63
2023-04-02T11:05:52.156Z,7.63
2023-04-02T11:10:59.027Z,7.63
2023-04-02T11:16:00.525Z,7.66
2023-04-02T11:21:03.642Z,8.02
2023-04-02T11:26:23.652Z,7.91
2023-04-02T11:31:25.055Z,7.91
2023-04-02T11:36:45.078Z,8.02
2023-04-02T11:42:03.164Z,7.73
2023-04-02T11:47:16.542Z,8.06
2023-04-02T11:52:20.902Z,7.83
2023-04-02T11:57:25.004Z,8.29
2023-04-02T12:02:35.252Z,8.22
2023-04-02T12:07:46.568Z,8.06
2023-04-02T12:12:48.485Z,7.89
2023-04-02T12:17:50.209Z,8.05
2023-04-02T12:22:55.791Z,8.10
2023-04-02T12:28:09.635Z,8.28
2023-04-02T12:33:19.830Z,8.27
2023-04-02T12:38:25.867Z,8.01
2023-04-02T12:43:31.346Z,8.33
2023-04-02T12:48:33.524Z,8.57
2023-04-02T12:53:40.024Z,8.47
2023-04-02T12:58:42.681Z,8.33
2023-04-02T13:03:44.827Z,8.26
2023-04-02T13:08:46.217Z,8.54
2023-04-02T13:13:48.587Z,8.36
2023-04-02T13:18:50.589Z,8.46
2023-04-02T13:23:51.957Z,8.33
2023-04-02T13:28:56.499Z,8.03
2023-04-02T13:33:58.530Z,8.30
2023-04-02T13:39:00.174Z,8.32
2023-04-02T13:44:02.801Z,8.59
2023-04-02T13:49:04.247Z,8.42
2023-04-02T13:54:08.833Z,8.60
2023-04-02T13:59:10.325Z,8.19
2023-04-02T14:04:13.839Z,8.27
2023-04-02T14:09:18.132Z,8.54
2023-04-02T14:14:28.655Z,8.43
2023-04-02T14:19:50.891Z,8.23
2023-04-02T14:24:52.247Z,8.00
2023-04-02T14:30:13.976Z,8.14
2023-04-02T14:35:24.511Z,8.13
2023-04-02T14:40:46.323Z,8.22
2023-04-02T14:45:51.481Z,8.43
2023-04-02T14:51:01.436Z,8.07
2023-04-02T14:56:05.730Z,8.30
2023-04-02T15:01:13.675Z,8.48
2023-04-02T15:06:18.314Z,8.31
2023-04-02T15:11:21.408Z,8.75
2023-04-02T15:16:25.467Z,9.05
2023-04-02T15:21:29.932Z,9.05
2023-04-02T15:26:37.794Z,8.83
2023-04-02T15:31:43.803Z,9.03
2023-04-02T15:36:54.122Z,8.41
2023-04-02T15:41:58.397Z,8.73
2023-04-02T15:47:05.720Z,8.97
2023-04-02T15:52:17.031Z,9.46
2023-04-02T15:57:27.545Z,9.30
2023-04-02T16:02:41.055Z,9.35
2023-04-02T16:07:42.484Z,9.41
2023-04-02T16:12:44.180Z,9.55
2023-04-02T16:17:47.580Z,9.39
2023-04-02T16:23:00.596Z,9.11
2023-04-02T16:28:02.517Z,9.34
2023-04-02T16:33:30.354Z,9.15
2023-04-02T16:38:40.852Z,9.32
2023-04-02T16:43:48.884Z,9.33
2023-04-02T16:49:08.845Z,9.18
2023-04-02T16:54:16.981Z,8.94
2023-04-02T16:59:22.857Z,8.92
2023-04-02T17:04:24.202Z,9.01
2023-04-02T17:09:49.314Z,8.69
2023-04-02T17:14:54.572Z,9.23
2023-04-02T17:19:57.835Z,9.35
2023-04-02T17:25:04.184Z,9.52
2023-04-02T17:30:17.075Z,9.46
2023-04-02T17:35:24.985Z,9.22
2023-04-02T17:40:52.961Z,8.84
2023-04-02T17:46:01.734Z,9.20
2023-04-02T17:51:21.823Z,9.06
2023-04-02T17:56:29.024Z,8.90
2023-04-02T18:01:39.640Z,8.80
2023-04-02T18:06:45.996Z,8.85
2023-04-02T18:12:02.071Z,8.80
2023-04-02T18:17:42.106Z,8.75
2023-04-02T18:22:49.362Z,8.58
2023-04-02T18:27:56.903Z,8.37
2023-04-02T18:33:18.366Z,8.46
2023-04-02T18:38:33.152Z,8.32
2023-04-02T18:43:53.095Z,8.19
2023-04-02T18:48:59.766Z,8.11
2023-04-02T18:54:17.645Z,8.11
2023-04-02T18:59:28.251Z,8.23
2023-04-02T19:04:31.538Z,8.10
2023-04-02T19:09:38.716Z,8.04
2023-04-02T19:14:40.292Z,8.13
2023-04-02T19:19:46.587Z,8.04
2023-04-02T19:24:57.314Z,7.85
2023-04-02T19:29:58.650Z,7.75
2023-04-02T19:35:07.256Z,7.72
2023-04-02T19:40:27.383Z,7.75
2023-04-02T19:45:34.710Z,7.83
2023-04-02T19:50:36.473Z,7.79
2023-04-02T19:55:38.237Z,7.61
2023-04-02T20:00:39.906Z,7.59
2023-04-02T20:05:41.274Z,7.41
2023-04-02T20:10:42.678Z,7.52
2023-04-02T20:15:44.016Z,7.41
2023-04-02T20:20:46.469Z,7.38
2023-04-02T20:25:52.606Z,7.21
2023-04-02T20:30:54.702Z,7.29
2023-04-02T20:36:00.757Z,7.21
2023-04-02T20:41:03.666Z,7.02
2023-04-02T20:46:05.653Z,7.07
2023-04-02T20:51:08.089Z,6.94
2023-04-02T20:56:13.618Z,7.03
2023-04-02T21:01:22.147Z,7.03
2023-04-02T21:06:24.568Z,6.76
2023-04-02T21:11:26.136Z,6.83
2023-04-02T21:16:29.251Z,6.76
2023-04-02T21:21:30.768Z,6.75
2023-04-02T21:26:34.829Z,6.54
2023-04-02T21:31:37.602Z,6.54
2023-04-02T21:36:46.120Z,6.48
2023-04-02T21:41:50.064Z,6.57
2023-04-02T21:46:53.627Z,6.47
2023-04-02T21:51:55.704Z,6.47
2023-04-02T21:56:57.114Z,6.47
2023-04-02T22:01:58.562Z,6.47
2023-04-02T22:06:59.952Z,6.47
2023-04-02T22:12:02.237Z,6.36
2023-04-02T22:17:03.905Z,6.36
2023-04-02T22:22:05.519Z,6.36
2023-04-02T22:27:06.912Z,6.36
2023-04-02T22:32:08.222Z,6.07
2023-04-02T22:37:09.583Z,6.07
2023-04-02T22:42:10.927Z,6.07
2023-04-02T22:47:12.356Z,6.07
2023-04-02T22:57:15.030Z,6.07
2023-04-02T23:02:16.434Z,-140.81
2023-04-02T23:07:19.582Z,6.07
2023-04-02T23:12:21.240Z,6.07
2023-04-02T23:17:22.757Z,-140.81
2023-04-02T23:22:24.093Z,-140.81
2023-04-02T23:27:25.649Z,6.07
2023-04-02T23:42:29.589Z,-140.81
2023-04-02T23:47:31.072Z,-140.81
2023-04-02T23:52:32.432Z,-140.81
2023-04-02T23:57:33.879Z,-140.81
